Time;durP1;ratioP1;P1;durP2;ratioP2;P2;SDS_P1;SDS_P2;PMS_P1;PMS_P2;Temp;Humidity;BMP_temperature;BMP_pressure;BME280_temperature;BME280_humidity;BME280_pressure;Samples;Min_cycle;Max_cycle;Signal;HPM_P1;HPM_P2
2021/07/04 00:00:23;;;;;;;;;;;19.00;99.90;;;;;;5092093;28;19904;-85
2021/07/04 00:02:52;;;;;;;;;;;19.00;99.90;;;;;;5092796;28;19904;-85
2021/07/04 00:05:19;;;;;;;;;;;19.00;99.90;;;;;;5093511;28;19912;-85
2021/07/04 00:07:45;;;;;;;;;;;18.90;99.90;;;;;;5092913;28;19908;-85
2021/07/04 00:10:12;;;;;;;;;;;19.00;99.90;;;;;;5094578;28;19908;-84
2021/07/04 00:12:37;;;;;;;;;;;19.00;99.90;;;;;;5095885;28;19910;-84
2021/07/04 00:15:05;;;;;;;;;;;18.90;99.90;;;;;;5093730;28;19908;-84
2021/07/04 00:17:30;;;;;;;;;;;18.90;99.90;;;;;;5092149;28;19999;-85
2021/07/04 00:19:56;;;;;;;;;;;18.90;99.90;;;;;;5092984;28;19940;-85
2021/07/04 00:22:21;;;;;;;;;;;18.90;99.90;;;;;;5093655;28;19904;-85
2021/07/04 00:24:46;;;;;;;;;;;18.90;99.90;;;;;;5092001;28;19965;-85
2021/07/04 00:27:12;;;;;;;;;;;18.80;99.90;;;;;;5092367;28;20390;-85
2021/07/04 00:29:37;;;;;;;;;;;18.80;99.90;;;;;;5092148;28;19908;-85
2021/07/04 00:32:03;;;;;;;;;;;18.80;99.90;;;;;;5092432;28;19904;-85
2021/07/04 00:34:28;;;;;;;;;;;18.80;99.90;;;;;;5094334;28;20328;-85
2021/07/04 00:36:54;;;;;;;;;;;18.60;99.90;;;;;;5092647;28;19908;-86
2021/07/04 00:39:19;;;;;;;;;;;18.50;99.90;;;;;;5093410;28;19915;-85
2021/07/04 00:41:45;;;;;;;;;;;18.50;99.90;;;;;;5091756;28;19943;-85
2021/07/04 00:44:10;;;;;;;;;;;18.40;99.90;;;;;;5092292;28;19926;-85
2021/07/04 00:46:36;;;;;;;;;;;18.50;99.90;;;;;;5092484;28;19904;-85
2021/07/04 00:49:02;;;;;;;;;;;18.50;99.90;;;;;;5095003;28;20363;-86
2021/07/04 00:51:27;;;;;;;;;;;18.40;99.90;;;;;;5092958;28;19911;-86
2021/07/04 00:53:53;;;;;;;;;;;18.40;99.90;;;;;;5093117;28;19919;-85
2021/07/04 00:56:19;;;;;;;;;;;18.40;99.90;;;;;;5093098;28;19911;-84
2021/07/04 00:58:44;;;;;;;;;;;18.40;99.90;;;;;;5093846;28;19908;-86
2021/07/04 01:01:10;;;;;;;;;;;18.40;99.90;;;;;;5093760;28;19908;-86
2021/07/04 01:03:35;;;;;;;;;;;18.40;99.90;;;;;;5093155;28;20009;-85
2021/07/04 01:06:00;;;;;;;;;;;18.30;99.90;;;;;;5093017;28;19908;-85
2021/07/04 01:08:27;;;;;;;;;;;18.30;99.90;;;;;;5093895;28;19935;-86
2021/07/04 01:10:52;;;;;;;;;;;18.20;99.90;;;;;;5094286;28;20317;-86
2021/07/04 01:13:17;;;;;;;;;;;18.20;99.90;;;;;;5097061;28;19955;-85
2021/07/04 01:15:45;;;;;;;;;;;18.20;99.90;;;;;;5097606;28;19908;-85
2021/07/04 01:18:10;;;;;;;;;;;18.30;99.90;;;;;;5097198;28;19987;-86
2021/07/04 01:20:37;;;;;;;;;;;18.30;99.90;;;;;;5098142;28;20351;-86
2021/07/04 01:23:04;;;;;;;;;;;18.30;99.90;;;;;;5098383;28;19957;-86
2021/07/04 01:25:30;;;;;;;;;;;18.20;99.90;;;;;;5098506;28;20381;-84
2021/07/04 01:27:56;;;;;;;;;;;18.20;99.90;;;;;;5097410;28;19904;-86
2021/07/04 01:30:22;;;;;;;;;;;18.30;99.90;;;;;;5096538;28;20355;-85
2021/07/04 01:32:48;;;;;;;;;;;18.30;99.90;;;;;;5096267;28;19907;-85
2021/07/04 01:35:14;;;;;;;;;;;18.30;99.90;;;;;;5096657;28;19904;-86
2021/07/04 01:37:39;;;;;;;;;;;18.20;99.90;;;;;;5097181;28;20385;-84
2021/07/04 01:40:05;;;;;;;;;;;18.30;99.90;;;;;;5095932;28;19904;-85
2021/07/04 01:42:31;;;;;;;;;;;18.30;99.90;;;;;;5096314;28;19904;-84
2021/07/04 01:44:56;;;;;;;;;;;18.30;99.90;;;;;;5098003;28;20386;-85
2021/07/04 01:47:22;;;;;;;;;;;18.20;99.90;;;;;;5098528;28;19904;-86
2021/07/04 01:49:47;;;;;;;;;;;18.10;99.90;;;;;;5097926;28;19914;-85
2021/07/04 01:52:13;;;;;;;;;;;18.20;99.90;;;;;;5094927;28;20320;-84
2021/07/04 01:54:38;;;;;;;;;;;18.20;99.90;;;;;;5096527;28;19904;-85
2021/07/04 01:57:13;;;;;;;;;;;18.20;99.90;;;;;;5096183;28;19934;-86
2021/07/04 01:59:43;;;;;;;;;;;18.10;99.90;;;;;;5096229;28;20286;-85
2021/07/04 02:02:09;;;;;;;;;;;18.10;99.90;;;;;;5094861;28;20033;-85
2021/07/04 02:04:40;;;;;;;;;;;18.10;99.90;;;;;;5095242;28;20010;-85
2021/07/04 02:07:05;;;;;;;;;;;18.10;99.90;;;;;;5096123;28;20393;-86
2021/07/04 02:09:32;;;;;;;;;;;18.20;99.90;;;;;;5095277;28;19904;-86
2021/07/04 02:11:57;;;;;;;;;;;18.30;99.90;;;;;;5095850;28;19904;-86
2021/07/04 02:14:27;;;;;;;;;;;18.30;99.90;;;;;;5095648;28;19911;-85
2021/07/04 02:16:53;;;;;;;;;;;18.30;99.90;;;;;;5096202;28;20414;-86
2021/07/04 02:19:18;;;;;;;;;;;18.30;99.90;;;;;;5096320;28;19955;-85
2021/07/04 02:21:43;;;;;;;;;;;18.30;99.90;;;;;;5095431;28;19907;-85
2021/07/04 02:24:09;;;;;;;;;;;18.30;99.90;;;;;;5095312;28;19926;-86
2021/07/04 02:26:34;;;;;;;;;;;18.40;99.90;;;;;;5096232;28;19904;-85
2021/07/04 02:29:00;;;;;;;;;;;18.30;99.90;;;;;;5097354;28;20389;-85
2021/07/04 02:31:25;;;;;;;;;;;18.30;99.90;;;;;;5097123;28;19949;-86
2021/07/04 02:33:51;;;;;;;;;;;18.40;99.90;;;;;;5095884;28;19904;-85
2021/07/04 02:36:16;;;;;;;;;;;18.40;99.90;;;;;;5095972;28;20370;-85
2021/07/04 02:38:42;;;;;;;;;;;18.40;99.90;;;;;;5094713;28;19999;-85
2021/07/04 02:41:07;;;;;;;;;;;18.40;99.90;;;;;;5094845;28;19922;-86
2021/07/04 02:43:32;;;;;;;;;;;18.40;99.90;;;;;;5095958;28;20374;-85
2021/07/04 02:45:58;;;;;;;;;;;18.40;99.90;;;;;;5095565;28;19986;-86
2021/07/04 02:48:23;;;;;;;;;;;18.40;99.90;;;;;;5096220;28;19904;-86
2021/07/04 02:50:50;;;;;;;;;;;18.40;99.90;;;;;;5095031;28;19908;-85
2021/07/04 02:53:15;;;;;;;;;;;18.40;99.90;;;;;;5094523;28;20386;-85
2021/07/04 02:55:41;;;;;;;;;;;18.40;99.90;;;;;;5095834;28;19904;-86
2021/07/04 02:58:06;;;;;;;;;;;18.40;99.90;;;;;;5095905;28;19918;-86
2021/07/04 03:00:32;;;;;;;;;;;18.40;99.90;;;;;;5095700;28;19904;-86
2021/07/04 03:02:57;;;;;;;;;;;18.40;99.90;;;;;;5095310;28;20256;-85
2021/07/04 03:05:23;;;;;;;;;;;18.30;99.90;;;;;;5095449;28;19908;-86
2021/07/04 03:07:49;;;;;;;;;;;18.30;99.90;;;;;;5095679;28;19926;-86
2021/07/04 03:10:16;;;;;;;;;;;18.30;99.90;;;;;;5095312;28;20037;-87
2021/07/04 03:12:42;;;;;;;;;;;18.40;99.90;;;;;;5094449;28;19904;-84
2021/07/04 03:15:09;;;;;;;;;;;18.40;99.90;;;;;;5095209;28;19947;-85
2021/07/04 03:17:35;;;;;;;;;;;18.50;99.90;;;;;;5095208;28;19904;-85
2021/07/04 03:20:01;;;;;;;;;;;18.50;99.90;;;;;;5095819;28;19904;-85
2021/07/04 03:22:26;;;;;;;;;;;18.40;99.90;;;;;;5096705;28;20340;-86
2021/07/04 03:24:52;;;;;;;;;;;18.40;99.90;;;;;;5095396;28;19922;-86
2021/07/04 03:27:17;;;;;;;;;;;18.40;99.90;;;;;;5095101;28;20144;-85
2021/07/04 03:29:43;;;;;;;;;;;18.40;99.90;;;;;;5095405;28;19904;-86
2021/07/04 03:32:08;;;;;;;;;;;18.30;99.90;;;;;;5096483;28;19911;-85
2021/07/04 03:34:34;;;;;;;;;;;18.30;99.90;;;;;;5095543;28;19904;-86
2021/07/04 03:37:00;;;;;;;;;;;18.30;99.90;;;;;;5094797;28;20281;-85
2021/07/04 03:39:25;;;;;;;;;;;18.30;99.90;;;;;;5097110;28;19908;-85
2021/07/04 03:41:50;;;;;;;;;;;18.30;99.90;;;;;;5095913;28;20381;-86
2021/07/04 03:44:16;;;;;;;;;;;18.40;99.90;;;;;;5094709;28;19912;-86
2021/07/04 03:46:41;;;;;;;;;;;18.40;99.90;;;;;;5094601;28;20007;-86
2021/07/04 03:49:07;;;;;;;;;;;18.50;99.90;;;;;;5094709;28;19904;-85
2021/07/04 03:51:32;;;;;;;;;;;18.50;99.90;;;;;;5094200;28;19904;-86
2021/07/04 03:53:58;;;;;;;;;;;18.50;99.90;;;;;;5094507;28;20118;-86
2021/07/04 03:56:23;;;;;;;;;;;18.50;99.90;;;;;;5094819;28;19908;-86
2021/07/04 03:58:49;;;;;;;;;;;18.60;99.90;;;;;;5094451;28;20359;-86
2021/07/04 04:01:19;;;;;;;;;;;18.50;99.90;;;;;;5095241;28;19904;-86
2021/07/04 04:03:45;;;;;;;;;;;18.50;99.90;;;;;;5094711;28;19904;-86
2021/07/04 04:06:10;;;;;;;;;;;18.60;99.90;;;;;;5095405;28;19953;-86
2021/07/04 04:08:36;;;;;;;;;;;18.70;99.90;;;;;;5095443;28;20392;-86
2021/07/04 04:11:03;;;;;;;;;;;18.60;99.90;;;;;;5095510;28;19977;-85
2021/07/04 04:13:29;;;;;;;;;;;18.50;99.90;;;;;;5095704;28;19995;-86
2021/07/04 04:15:54;;;;;;;;;;;18.50;99.90;;;;;;5097763;28;19935;-86
2021/07/04 04:18:20;;;;;;;;;;;18.60;99.90;;;;;;5097914;28;19904;-84
2021/07/04 04:20:45;;;;;;;;;;;18.60;99.90;;;;;;5098785;28;20393;-86
2021/07/04 04:23:10;;;;;;;;;;;18.70;99.90;;;;;;5096789;28;19904;-86
2021/07/04 04:25:36;;;;;;;;;;;18.80;99.90;;;;;;5095523;28;20263;-85
2021/07/04 04:28:04;;;;;;;;;;;18.90;99.90;;;;;;5095611;28;19904;-87
2021/07/04 04:30:31;;;;;;;;;;;19.00;99.90;;;;;;5096116;28;20290;-85
2021/07/04 04:32:56;;;;;;;;;;;19.10;99.90;;;;;;5097054;28;19904;-86
2021/07/04 04:35:22;;;;;;;;;;;19.20;99.90;;;;;;5095227;28;19929;-86
2021/07/04 04:37:47;;;;;;;;;;;19.20;99.90;;;;;;5096313;28;19912;-86
2021/07/04 04:40:13;;;;;;;;;;;19.20;99.90;;;;;;5094661;28;19954;-87
2021/07/04 04:42:38;;;;;;;;;;;19.30;99.90;;;;;;5092991;28;19915;-85
2021/07/04 04:45:04;;;;;;;;;;;19.30;99.90;;;;;;5091045;28;20049;-86
2021/07/04 04:47:29;;;;;;;;;;;19.30;99.90;;;;;;5090874;28;20354;-85
2021/07/04 04:49:55;;;;;;;;;;;19.40;99.90;;;;;;5089958;28;19905;-85
2021/07/04 04:52:20;;;;;;;;;;;19.40;99.90;;;;;;5092432;28;24101;-85
2021/07/04 04:54:46;;;;;;;;;;;19.50;99.90;;;;;;5093589;28;20138;-85
2021/07/04 04:57:11;;;;;;;;;;;19.70;99.90;;;;;;5094377;28;20290;-84
2021/07/04 04:59:38;;;;;;;;;;;19.90;99.90;;;;;;5090868;28;19911;-85
2021/07/04 05:02:04;;;;;;;;;;;20.00;99.90;;;;;;5089209;28;24077;-85
2021/07/04 05:04:29;;;;;;;;;;;20.10;99.90;;;;;;5091003;28;20006;-86
2021/07/04 05:06:55;;;;;;;;;;;20.30;99.90;;;;;;5089566;28;19959;-84
2021/07/04 05:09:20;;;;;;;;;;;20.40;99.90;;;;;;5089940;28;19911;-86
2021/07/04 05:11:46;;;;;;;;;;;20.40;99.90;;;;;;5090837;28;20035;-85
2021/07/04 05:14:11;;;;;;;7.80;5.70;;;20.40;99.90;;;;;;5089938;28;20068;-86
2021/07/04 05:16:38;;;;;;;;;;;20.50;99.90;;;;;;5091205;28;19959;-85
2021/07/04 05:19:06;;;;;;;;;;;20.60;99.90;;;;;;5091027;28;19904;-84
2021/07/04 05:21:32;;;;;;;;;;;20.70;99.90;;;;;;5090709;28;19904;-86
2021/07/04 05:23:59;;;;;;;;;;;20.90;99.90;;;;;;5090823;28;19919;-85
2021/07/04 05:26:24;;;;;;;;;;;21.10;99.90;;;;;;5093118;28;19908;-85
2021/07/04 05:28:50;;;;;;;;;;;21.30;99.90;;;;;;5091478;28;20287;-85
2021/07/04 05:31:15;;;;;;;;;;;21.40;99.90;;;;;;5090945;28;20041;-85
2021/07/04 05:33:40;;;;;;;;;;;21.20;99.90;;;;;;5092446;28;20080;-85
2021/07/04 05:36:06;;;;;;;;;;;21.00;99.90;;;;;;5091244;28;20118;-86
2021/07/04 05:38:34;;;;;;;;;;;20.80;99.90;;;;;;5090333;28;20039;-86
2021/07/04 05:41:00;;;;;;;;;;;20.90;99.90;;;;;;5090318;28;20438;-86
2021/07/04 05:43:25;;;;;;;;;;;20.90;99.90;;;;;;5089501;28;20126;-86
2021/07/04 05:45:51;;;;;;;;;;;20.90;99.90;;;;;;5089738;28;20038;-86
2021/07/04 05:48:16;;;;;;;;;;;21.00;99.90;;;;;;5089820;28;20027;-85
2021/07/04 05:50:42;;;;;;;;;;;21.00;99.90;;;;;;5090005;28;20024;-85
2021/07/04 05:53:07;;;;;;;;;;;21.10;99.90;;;;;;5089480;28;20030;-85
2021/07/04 05:55:33;;;;;;;;;;;21.20;99.90;;;;;;5089223;28;20111;-85
2021/07/04 05:57:58;;;;;;;;;;;21.30;99.90;;;;;;5091707;28;19915;-85
2021/07/04 06:00:24;;;;;;;;;;;21.40;99.90;;;;;;5093279;28;20027;-85
2021/07/04 06:02:49;;;;;;;;;;;21.40;99.90;;;;;;5092753;28;20027;-86
2021/07/04 06:05:17;;;;;;;;;;;21.40;99.90;;;;;;5092861;28;20039;-86
2021/07/04 06:07:43;;;;;;;;;;;21.70;99.90;;;;;;5093078;28;20024;-86
2021/07/04 06:10:08;;;;;;;;;;;21.80;99.90;;;;;;5092692;28;20037;-87
2021/07/04 06:12:34;;;;;;;7.50;4.50;;;22.00;99.90;;;;;;5092565;28;19927;-86
2021/07/04 06:14:59;;;;;;;;;;;22.20;99.90;;;;;;5092878;28;20059;-85
2021/07/04 06:17:25;;;;;;;;;;;22.50;99.90;;;;;;5093505;28;20049;-86
2021/07/04 06:19:50;;;;;;;;;;;22.60;99.90;;;;;;5093488;28;20387;-86
2021/07/04 06:22:16;;;;;;;;;;;22.80;99.90;;;;;;5093460;28;20066;-85
2021/07/04 06:24:41;;;;;;;;;;;22.80;99.90;;;;;;5093077;28;19908;-86
2021/07/04 06:27:07;;;;;;;;;;;22.80;99.90;;;;;;5094466;28;20390;-84
2021/07/04 06:29:32;;;;;;;;;;;22.80;99.90;;;;;;5093237;28;20036;-85
2021/07/04 06:31:58;;;;;;;;;;;22.60;99.90;;;;;;5092849;28;20024;-85
2021/07/04 06:34:23;;;;;;;;;;;22.50;99.90;;;;;;5092989;28;20053;-85
2021/07/04 06:36:49;;;;;;;;;;;22.20;99.90;;;;;;5094250;28;20111;-85
2021/07/04 06:39:14;;;;;;;;;;;22.10;99.90;;;;;;5092931;28;20020;-86
2021/07/04 06:41:39;;;;;;;;;;;22.10;99.90;;;;;;5092971;28;20486;-85
2021/07/04 06:44:05;;;;;;;;;;;22.10;99.90;;;;;;5093784;28;20054;-86
2021/07/04 06:46:31;;;;;;;;;;;22.10;99.90;;;;;;5095058;28;20637;-86
2021/07/04 06:48:57;;;;;;;;;;;22.10;99.90;;;;;;5093638;28;20033;-85
2021/07/04 06:51:23;;;;;;;;;;;22.20;99.90;;;;;;5093843;28;24063;-86
2021/07/04 06:53:48;;;;;;;;;;;22.40;99.90;;;;;;5091824;28;19912;-86
2021/07/04 06:56:13;;;;;;;;;;;22.60;99.90;;;;;;5093026;28;24064;-85
2021/07/04 06:58:39;;;;;;;;;;;22.70;99.90;;;;;;5091781;28;19957;-87
2021/07/04 07:01:05;;;;;;;;;;;22.80;99.90;;;;;;5093093;28;20038;-86
2021/07/04 07:03:30;;;;;;;;;;;23.00;99.90;;;;;;5093275;28;20069;-85
2021/07/04 07:05:56;;;;;;;;;;;23.60;99.90;;;;;;5093717;28;20059;-86
2021/07/04 07:08:21;;;;;;;;;;;24.50;99.90;;;;;;5093691;28;20377;-86
2021/07/04 07:10:46;;;;;;;;;;;25.40;99.90;;;;;;5093798;28;19910;-86
2021/07/04 07:13:12;;;;;;;;;;;25.60;99.90;;;;;;5094304;28;19910;-85
2021/07/04 07:15:37;;;;;;;;;;;25.70;99.90;;;;;;5094159;28;19908;-87
2021/07/04 07:18:03;;;;;;;;;;;25.60;99.90;;;;;;5096060;28;19904;-87
2021/07/04 07:20:29;;;;;;;;;;;25.20;99.90;;;;;;5095212;28;20381;-85
2021/07/04 07:22:54;;;;;;;;;;;25.10;99.90;;;;;;5094358;28;20375;-86
2021/07/04 07:25:20;;;;;;;;;;;24.70;99.90;;;;;;5094222;28;20190;-86
2021/07/04 07:27:45;;;;;;;;;;;24.90;99.90;;;;;;5096043;28;19953;-86
2021/07/04 07:30:11;;;;;;;;;;;24.90;99.90;;;;;;5094758;28;19905;-84
2021/07/04 07:32:37;;;;;;;;;;;24.60;99.90;;;;;;5094799;28;19943;-85
2021/07/04 07:35:04;;;;;;;;;;;24.30;99.90;;;;;;5095482;28;19926;-85
2021/07/04 07:37:30;;;;;;;;;;;24.20;99.90;;;;;;5093283;28;19919;-85
2021/07/04 07:39:55;;;;;;;;;;;24.20;99.90;;;;;;5092577;28;19904;-85
2021/07/04 07:42:21;;;;;;;;;;;23.90;99.90;;;;;;5091980;28;19930;-85
2021/07/04 07:44:46;;;;;;;;;;;23.80;99.90;;;;;;5091601;28;19938;-85
2021/07/04 07:47:13;;;;;;;;;;;23.60;99.90;;;;;;5092127;28;19908;-85
2021/07/04 07:49:38;;;;;;;;;;;23.60;99.90;;;;;;5092049;28;19961;-86
2021/07/04 07:52:04;;;;;;;;;;;23.50;99.90;;;;;;5091454;28;19908;-85
2021/07/04 07:54:30;;;;;;;;;;;23.50;99.90;;;;;;5090436;28;20482;-85
2021/07/04 07:56:55;;;;;;;;;;;23.70;99.90;;;;;;5091720;28;20120;-85
2021/07/04 07:59:21;;;;;;;;;;;23.80;99.90;;;;;;5092355;28;20042;-86
2021/07/04 08:01:47;;;;;;;;;;;23.80;99.90;;;;;;5090942;28;20060;-86
2021/07/04 08:04:12;;;;;;;;;;;23.60;99.90;;;;;;5090753;28;20040;-85
2021/07/04 08:06:38;;;;;;;;;;;23.60;99.90;;;;;;5091402;28;19908;-85
2021/07/04 08:09:04;;;;;;;;;;;23.50;99.90;;;;;;5091630;28;20377;-84
2021/07/04 08:11:29;;;;;;;;;;;23.50;99.90;;;;;;5091289;28;20501;-84
2021/07/04 08:13:55;;;;;;;;;;;23.50;99.90;;;;;;5090860;28;20038;-85
2021/07/04 08:16:20;;;;;;;;;;;23.70;99.90;;;;;;5090746;28;20034;-85
2021/07/04 08:18:46;;;;;;;;;;;23.90;99.90;;;;;;5090260;28;20359;-85
2021/07/04 08:21:11;;;;;;;;;;;24.10;99.90;;;;;;5089578;28;19903;-85
2021/07/04 08:23:37;;;;;;;;;;;24.10;99.90;;;;;;5091192;28;19919;-85
2021/07/04 08:26:02;;;;;;;;;;;24.20;99.90;;;;;;5089983;28;24064;-85
2021/07/04 08:28:28;;;;;;;;;;;24.30;99.90;;;;;;5090149;28;19923;-84
2021/07/04 08:30:53;;;;;;;;;;;24.20;99.90;;;;;;5090241;28;20609;-84
2021/07/04 08:33:19;;;;;;;;;;;24.10;99.90;;;;;;5090058;28;19951;-84
2021/07/04 08:35:44;;;;;;;;;;;24.10;99.90;;;;;;5089856;28;19904;-86
2021/07/04 08:38:10;;;;;;;;;;;24.00;99.90;;;;;;5091095;28;20032;-85
2021/07/04 08:40:35;;;;;;;;;;;24.10;99.90;;;;;;5091435;28;19978;-85
2021/07/04 08:43:02;;;;;;;;;;;24.30;99.90;;;;;;5090977;28;20524;-84
2021/07/04 08:45:27;;;;;;;;;;;24.60;99.90;;;;;;5091206;28;19908;-84
2021/07/04 08:47:53;;;;;;;;;;;25.00;99.90;;;;;;5090614;28;20263;-86
2021/07/04 08:50:18;;;;;;;;;;;25.50;99.90;;;;;;5091419;28;19908;-84
2021/07/04 08:52:44;;;;;;;;;;;26.30;99.90;;;;;;5090814;28;19908;-84
2021/07/04 08:55:10;;;;;;;;;;;26.70;99.90;;;;;;5091564;28;20291;-85
2021/07/04 08:57:35;;;;;;;;;;;26.90;99.90;;;;;;5091334;28;20051;-85
2021/07/04 09:00:01;;;;;;;;;;;27.10;99.90;;;;;;5091151;28;19904;-85
2021/07/04 09:02:40;;;;;;;;;;;27.10;99.90;;;;;;5090585;28;24103;-84
2021/07/04 09:05:09;;;;;;;;;;;26.70;99.90;;;;;;5090445;28;25057;-84
2021/07/04 09:07:35;;;;;;;;;;;26.70;99.90;;;;;;5090901;28;19927;-84
2021/07/04 09:10:04;;;;;;;;;;;26.70;99.90;;;;;;5090598;28;20359;-85
2021/07/04 09:12:46;;;;;;;;;;;26.10;99.90;;;;;;5090597;28;20377;-84
2021/07/04 09:15:16;;;;;;;;;;;25.80;99.90;;;;;;5090670;28;19908;-85
2021/07/04 09:17:45;;;;;;;;;;;25.40;99.90;;;;;;5090997;28;20496;-86
2021/07/04 09:20:12;;;;;;;;;;;25.00;99.90;;;;;;5090628;28;24064;-85
2021/07/04 09:22:41;;;;;;;;;;;24.80;99.90;;;;;;5090665;28;20366;-85
2021/07/04 09:25:10;;;;;;;;;;;24.60;99.90;;;;;;5091477;28;24084;-85
2021/07/04 09:27:36;;;;;;;;;;;24.70;99.90;;;;;;5090880;28;25049;-84
2021/07/04 09:30:02;;;;;;;;;;;24.60;99.90;;;;;;5090870;28;19904;-84
2021/07/04 09:32:28;;;;;;;;;;;24.60;99.90;;;;;;5091287;28;19910;-85
2021/07/04 09:35:02;;;;;;;;;;;24.50;99.90;;;;;;5094788;28;19904;-85
2021/07/04 09:37:28;;;;;;;;;;;24.40;99.90;;;;;;5094659;28;24062;-84
2021/07/04 09:40:12;;;;;;;;;;;24.50;99.90;;;;;;5096662;28;19908;-85
2021/07/04 09:42:56;;;;;;;;;;;24.70;99.90;;;;;;5095872;28;19904;-84
2021/07/04 09:45:22;;;;;;;;;;;24.90;99.90;;;;;;5097441;28;19907;-84
2021/07/04 09:47:52;;;;;;;;;;;25.20;99.90;;;;;;5096728;28;20433;-84
2021/07/04 09:50:18;;;;;;;;;;;25.50;99.90;;;;;;5096573;28;20043;-84
2021/07/04 09:52:54;;;;;;;;;;;25.80;99.90;;;;;;5096617;28;20023;-84
2021/07/04 09:55:20;;;;;;;;;;;26.00;99.90;;;;;;5096724;28;20165;-84
2021/07/04 09:58:12;;;;;;;;;;;25.90;99.90;;;;;;5096652;28;24108;-84
2021/07/04 10:00:38;;;;;;;;;;;25.80;99.90;;;;;;5092451;28;20502;-85
2021/07/04 10:03:04;;;;;;;;;;;25.80;99.90;;;;;;5099631;28;20294;-85
2021/07/04 10:05:30;;;;;;;;;;;25.60;99.90;;;;;;5098787;28;19908;-85
2021/07/04 10:07:56;;;;;;;;;;;25.50;99.90;;;;;;5100082;28;20553;-86
2021/07/04 10:10:21;;;;;;;;;;;25.40;99.90;;;;;;5101324;28;20034;-86
2021/07/04 10:12:47;;;;;;;;;;;25.20;99.90;;;;;;5100608;28;20024;-86
2021/07/04 10:15:12;;;;;;;;;;;24.90;99.90;;;;;;5100568;28;20032;-86
2021/07/04 10:17:38;;;;;;;;;;;24.80;99.90;;;;;;5100482;28;20030;-87
2021/07/04 10:20:04;;;;;;;;;;;24.80;99.90;;;;;;5099728;28;19904;-86
2021/07/04 10:22:37;;;;;;;;;;;24.70;99.90;;;;;;5100236;28;19904;-87
2021/07/04 10:25:04;;;;;;;;;;;24.80;99.90;;;;;;5101502;28;20024;-87
2021/07/04 10:27:30;;;;;;;;;;;25.00;99.90;;;;;;5101462;28;19904;-85
2021/07/04 10:29:56;;;;;;;;;;;25.10;99.90;;;;;;5094047;28;19904;-85
2021/07/04 10:32:21;;;;;;;;;;;25.00;99.90;;;;;;5093572;28;19996;-86
2021/07/04 10:34:48;;;;;;;;;;;24.70;99.90;;;;;;5093591;28;20048;-84
2021/07/04 10:37:15;;;;;;;;;;;24.50;99.90;;;;;;5094316;28;19912;-86
2021/07/04 10:39:41;;;;;;;;;;;24.20;99.90;;;;;;5094106;28;19957;-85
2021/07/04 10:42:08;;;;;;;;;;;24.00;99.90;;;;;;5093347;28;20039;-85
2021/07/04 10:44:39;;;;;;;;;;;23.80;99.90;;;;;;5092952;28;20487;-85
2021/07/04 10:47:09;;;;;;;;;;;23.60;99.90;;;;;;5093442;28;19904;-86
2021/07/04 10:49:39;;;;;;;;;;;23.60;99.90;;;;;;5092193;28;19904;-84
2021/07/04 10:52:07;;;;;;;;;;;23.60;99.90;;;;;;5092088;28;24154;-85
2021/07/04 10:54:43;;;;;;;;;;;23.60;99.90;;;;;;5091704;28;20037;-85
2021/07/04 10:57:10;;;;;;;;;;;23.60;99.90;;;;;;5091960;28;19914;-85
2021/07/04 11:00:03;;;;;;;;;;;23.80;99.90;;;;;;5091469;28;19908;-85
2021/07/04 11:02:35;;;;;;;;;;;23.90;99.90;;;;;;5054768;28;20351;-86
2021/07/04 11:05:00;;;;;;;;;;;24.00;99.90;;;;;;5092069;28;20044;-85
2021/07/04 11:07:26;;;;;;;;;;;24.20;99.90;;;;;;5092102;28;20044;-85
2021/07/04 11:09:51;;;;;;;;;;;24.00;99.90;;;;;;5092526;28;19911;-85
2021/07/04 11:12:27;;;;;;;;;;;24.10;99.90;;;;;;5092090;28;20023;-84
2021/07/04 11:15:11;;;;;;;;;;;24.10;99.90;;;;;;5092281;28;20142;-85
2021/07/04 11:17:55;;;;;;;;;;;24.10;99.90;;;;;;5092005;28;20425;-84
2021/07/04 11:20:21;;;;;;;;;;;24.00;99.90;;;;;;5091566;28;20567;-87
2021/07/04 11:23:04;;;;;;;;;;;23.80;99.90;;;;;;5091650;28;20028;-86
2021/07/04 11:25:59;;;;;;;;;;;23.70;99.90;;;;;;5091225;28;20048;-86
2021/07/04 11:28:26;;;;;;;;;;;23.70;99.90;;;;;;5069970;28;20064;-83
2021/07/04 11:30:53;;;;;;;;;;;23.60;99.90;;;;;;5092564;28;20110;-86
2021/07/04 11:33:28;;;;;;;;;;;23.50;99.90;;;;;;5091801;28;20007;-85
2021/07/04 11:36:02;;;;;;;;;;;23.40;99.90;;;;;;5091170;28;20021;-85
2021/07/04 11:38:31;;;;;;;;;;;23.40;99.90;;;;;;5092819;28;24086;-85
2021/07/04 11:40:57;;;;;;;;;;;23.60;99.90;;;;;;5091271;28;25129;-85
2021/07/04 11:43:25;;;;;;;;;;;23.80;99.90;;;;;;5091423;28;20014;-85
2021/07/04 11:46:12;;;;;;;5.68;4.40;;;24.00;99.90;;;;;;5092874;28;20017;-86
2021/07/04 11:48:48;;;;;;;;;;;23.90;99.90;;;;;;5091570;28;19904;-86
2021/07/04 11:51:34;;;;;;;;;;;23.80;99.90;;;;;;5091849;28;19904;-86
2021/07/04 11:54:01;;;;;;;;;;;23.80;99.90;;;;;;5091512;28;20087;-87
2021/07/04 11:56:26;;;;;;;;;;;23.60;99.90;;;;;;5091025;28;19991;-86
2021/07/04 11:58:52;;;;;;;;;;;23.60;99.90;;;;;;5091535;28;20063;-86
2021/07/04 12:01:22;;;;;;;;;;;23.40;99.90;;;;;;5091586;28;20062;-86
2021/07/04 12:03:48;;;;;;;;;;;23.20;99.90;;;;;;5091584;28;20355;-85
2021/07/04 12:06:14;;;;;;;;;;;22.80;99.90;;;;;;5091330;28;20002;-84
2021/07/04 12:08:56;;;;;;;;;;;22.20;99.90;;;;;;5092751;28;19951;-86
2021/07/04 12:11:41;;;;;;;;;;;21.80;99.90;;;;;;5091927;28;20410;-86
2021/07/04 12:14:27;;;;;;;;;;;21.80;99.90;;;;;;5092203;28;19957;-86
2021/07/04 12:16:53;;;;;;;;;;;21.70;99.90;;;;;;5091353;28;20295;-85
2021/07/04 12:19:28;;;;;;;;;;;21.60;99.90;;;;;;5091895;28;19912;-85
2021/07/04 12:21:53;;;;;;;;;;;21.30;99.90;;;;;;5092042;28;20003;-84
2021/07/04 12:24:19;;;;;;;;;;;20.80;99.90;;;;;;5092175;28;19959;-84
2021/07/04 12:26:48;;;;;;;;;;;20.60;99.90;;;;;;5093396;28;19920;-85
2021/07/04 12:29:13;;;;;;;;;;;20.50;99.90;;;;;;5094108;28;20282;-84
2021/07/04 12:31:42;;;;;;;;;;;20.40;99.90;;;;;;5092988;28;19915;-84
2021/07/04 12:34:10;;;;;;;;;;;20.50;99.90;;;;;;5093988;28;20359;-84
2021/07/04 12:36:35;;;;;;;;;;;20.70;99.90;;;;;;5094541;28;19908;-85
2021/07/04 12:39:10;;;;;;;;;;;20.90;99.90;;;;;;5093739;28;19923;-84
2021/07/04 12:41:35;;;;;;;;;;;21.20;99.90;;;;;;5095053;28;20272;-85
2021/07/04 12:44:13;;;;;;;;;;;21.40;99.90;;;;;;5094039;28;19914;-84
2021/07/04 12:46:39;;;;;;;;;;;21.40;99.90;;;;;;5094411;28;19923;-84
2021/07/04 12:49:04;;;;;;;;;;;21.40;99.90;;;;;;5095107;28;19908;-85
2021/07/04 12:51:33;;;;;;;;;;;21.60;99.90;;;;;;5094854;28;19911;-85
2021/07/04 12:53:59;;;;;;;;;;;21.60;99.90;;;;;;5094877;28;20268;-85
2021/07/04 12:56:32;;;;;;;;;;;21.70;99.90;;;;;;5094766;28;19926;-84
2021/07/04 12:58:58;;;;;;;;;;;21.80;99.90;;;;;;5095389;28;20294;-84
2021/07/04 13:01:25;;;;;;;;;;;21.80;99.90;;;;;;5093517;28;19928;-85
2021/07/04 13:03:51;;;;;;;;;;;22.00;99.90;;;;;;5093412;28;19986;-84
2021/07/04 13:06:36;;;;;;;;;;;22.10;99.90;;;;;;5096471;28;19958;-84
2021/07/04 13:09:09;;;;;;;;;;;22.30;99.90;;;;;;5099547;28;20166;-86
2021/07/04 13:11:36;;;;;;;;;;;22.40;99.90;;;;;;5100463;28;19911;-86
2021/07/04 13:14:03;;;;;;;;;;;22.50;99.90;;;;;;5101663;28;19908;-86
2021/07/04 13:16:29;;;;;;;;;;;22.80;99.90;;;;;;5103019;28;20195;-85
2021/07/04 13:18:54;;;;;;;;;;;23.10;99.90;;;;;;5102434;28;19904;-86
2021/07/04 13:21:30;;;;;;;;;;;23.20;99.90;;;;;;5096485;28;20027;-84
2021/07/04 13:24:14;;;;;;;;;;;23.20;99.90;;;;;;5094674;28;20305;-84
2021/07/04 13:26:40;;;;;;;;;;;23.00;99.90;;;;;;5094817;28;19934;-84
2021/07/04 13:29:19;;;;;;;;;;;23.10;99.90;;;;;;5094790;28;19904;-84
2021/07/04 13:32:03;;;;;;;;;;;22.90;99.90;;;;;;5095866;28;20450;-86
2021/07/04 13:34:29;;;;;;;;;;;22.90;99.90;;;;;;5094577;28;19908;-85
2021/07/04 13:36:55;;;;;;;;;;;22.90;99.90;;;;;;5094633;28;19904;-84
2021/07/04 13:39:20;;;;;;;;;;;22.80;99.90;;;;;;5094924;28;20465;-84
2021/07/04 13:41:46;;;;;;;;;;;22.90;99.90;;;;;;5094708;28;20059;-84
2021/07/04 13:44:11;;;;;;;;;;;22.90;99.90;;;;;;5094481;28;20024;-85
2021/07/04 13:46:37;;;;;;;;;;;23.20;99.90;;;;;;5095400;28;19908;-85
2021/07/04 13:49:02;;;;;;;;;;;23.80;99.90;;;;;;5094176;28;20393;-84
2021/07/04 13:51:28;;;;;;;;;;;24.30;99.90;;;;;;5093895;28;19961;-84
2021/07/04 13:53:53;;;;;;;;;;;24.20;99.90;;;;;;5094979;28;19904;-85
2021/07/04 13:56:19;;;;;;;;;;;24.40;99.90;;;;;;5093789;28;20122;-84
2021/07/04 13:58:44;;;;;;;;;;;24.80;99.90;;;;;;5093953;28;20363;-84
2021/07/04 14:01:10;;;;;;;;;;;25.10;99.90;;;;;;5093791;28;20041;-84
2021/07/04 14:03:35;;;;;;;;;;;25.00;99.90;;;;;;5093014;28;20035;-84
2021/07/04 14:06:01;;;;;;;;;;;24.80;99.90;;;;;;5093378;28;20036;-84
2021/07/04 14:08:26;;;;;;;;;;;24.80;99.90;;;;;;5094392;28;24161;-84
2021/07/04 14:10:52;;;;;;;;;;;24.60;99.90;;;;;;5095643;28;19911;-85
2021/07/04 14:13:19;;;;;;;;;;;24.40;99.90;;;;;;5095850;28;24063;-84
2021/07/04 14:15:45;;;;;;;;;;;24.20;99.90;;;;;;5095307;28;20461;-84